sensor_id;sensor_type;location;lat;lon;timestamp;pressure;altitude;pressure_sealevel;temperature;humidity
52975;BME280;38839;45.186;5.720;2023-03-20T00:03:39;99622.50;;;9.16;78.90
52975;BME280;38839;45.186;5.720;2023-03-20T00:06:15;99609.50;;;9.18;78.29
52975;BME280;38839;45.186;5.720;2023-03-20T00:08:42;99613.88;;;9.20;77.98
52975;BME280;38839;45.186;5.720;2023-03-20T00:11:30;99608.78;;;9.30;78.05
52975;BME280;38839;45.186;5.720;2023-03-20T00:14:06;99613.16;;;9.34;76.80
52975;BME280;38839;45.186;5.720;2023-03-20T00:16:37;99616.66;;;9.40;77.13
52975;BME280;38839;45.186;5.720;2023-03-20T00:19:04;99625.31;;;9.33;77.22
52975;BME280;38839;45.186;5.720;2023-03-20T00:21:31;99636.59;;;9.37;76.88
52975;BME280;38839;45.186;5.720;2023-03-20T00:23:57;99620.09;;;9.33;77.22
52975;BME280;38839;45.186;5.720;2023-03-20T00:26:32;99622.75;;;9.39;77.23
52975;BME280;38839;45.186;5.720;2023-03-20T00:29:00;99621.75;;;9.28;81.83
52975;BME280;38839;45.186;5.720;2023-03-20T00:31:28;99620.78;;;9.18;83.96
52975;BME280;38839;45.186;5.720;2023-03-20T00:34:08;99617.22;;;9.07;87.38
52975;BME280;38839;45.186;5.720;2023-03-20T00:36:35;99616.06;;;8.80;90.79
52975;BME280;38839;45.186;5.720;2023-03-20T00:39:01;99616.03;;;8.77;90.02
52975;BME280;38839;45.186;5.720;2023-03-20T00:41:56;99612.59;;;8.80;91.26
52975;BME280;38839;45.186;5.720;2023-03-20T00:47:02;99605.63;;;8.79;90.63
52975;BME280;38839;45.186;5.720;2023-03-20T00:49:30;99610.81;;;8.76;91.42
52975;BME280;38839;45.186;5.720;2023-03-20T00:51:57;99617.03;;;8.89;90.24
52975;BME280;38839;45.186;5.720;2023-03-20T00:54:22;99606.75;;;9.04;89.38
52975;BME280;38839;45.186;5.720;2023-03-20T00:56:59;99609.47;;;9.13;87.04
52975;BME280;38839;45.186;5.720;2023-03-20T00:59:28;99603.34;;;9.08;85.94
52975;BME280;38839;45.186;5.720;2023-03-20T01:01:55;99597.38;;;9.18;86.00
52975;BME280;38839;45.186;5.720;2023-03-20T01:04:21;99593.03;;;9.17;85.36
52975;BME280;38839;45.186;5.720;2023-03-20T01:06:47;99590.47;;;9.22;84.77
52975;BME280;38839;45.186;5.720;2023-03-20T01:09:12;99583.53;;;9.21;83.89
52975;BME280;38839;45.186;5.720;2023-03-20T01:11:38;99584.34;;;9.15;83.88
52975;BME280;38839;45.186;5.720;2023-03-20T01:14:11;99578.34;;;9.24;83.45
52975;BME280;38839;45.186;5.720;2023-03-20T01:16:37;99580.03;;;9.20;83.23
52975;BME280;38839;45.186;5.720;2023-03-20T01:19:03;99577.44;;;9.20;83.30
52975;BME280;38839;45.186;5.720;2023-03-20T01:21:28;99574.88;;;9.23;82.95
52975;BME280;38839;45.186;5.720;2023-03-20T01:23:54;99568.78;;;9.24;82.51
52975;BME280;38839;45.186;5.720;2023-03-20T01:26:41;99564.47;;;9.28;82.54
52975;BME280;38839;45.186;5.720;2023-03-20T01:29:32;99556.59;;;9.20;82.68
52975;BME280;38839;45.186;5.720;2023-03-20T01:31:57;99554.03;;;9.22;82.81
52975;BME280;38839;45.186;5.720;2023-03-20T01:34:23;99558.38;;;9.24;82.49
52975;BME280;38839;45.186;5.720;2023-03-20T01:36:54;99553.22;;;9.27;82.10
52975;BME280;38839;45.186;5.720;2023-03-20T01:39:20;99551.44;;;9.26;81.97
52975;BME280;38839;45.186;5.720;2023-03-20T01:41:49;99542.75;;;9.24;81.86
52975;BME280;38839;45.186;5.720;2023-03-20T01:44:27;99534.97;;;9.26;81.86
52975;BME280;38839;45.186;5.720;2023-03-20T01:46:53;99543.66;;;9.25;82.10
52975;BME280;38839;45.186;5.720;2023-03-20T01:51:49;99529.66;;;9.14;83.14
52975;BME280;38839;45.186;5.720;2023-03-20T01:54:19;99530.53;;;9.13;83.71
52975;BME280;38839;45.186;5.720;2023-03-20T01:56:53;99532.28;;;9.15;83.96
52975;BME280;38839;45.186;5.720;2023-03-20T01:59:26;99536.66;;;9.21;83.90
52975;BME280;38839;45.186;5.720;2023-03-20T02:01:53;99524.50;;;9.21;84.30
52975;BME280;38839;45.186;5.720;2023-03-20T02:04:22;99520.19;;;9.23;84.19
52975;BME280;38839;45.186;5.720;2023-03-20T02:06:50;99521.88;;;9.18;83.94
52975;BME280;38839;45.186;5.720;2023-03-20T02:09:16;99521.91;;;9.21;84.35
52975;BME280;38839;45.186;5.720;2023-03-20T02:11:42;99516.66;;;9.18;85.05
52975;BME280;38839;45.186;5.720;2023-03-20T02:14:09;99521.91;;;9.21;84.73
52975;BME280;38839;45.186;5.720;2023-03-20T02:16:35;99527.06;;;9.15;85.02
52975;BME280;38839;45.186;5.720;2023-03-20T02:19:01;99515.78;;;9.13;85.27
52975;BME280;38839;45.186;5.720;2023-03-20T02:38:58;99513.91;;;8.97;85.45
52975;BME280;38839;45.186;5.720;2023-03-20T03:02:36;99517.91;;;8.64;87.81
52975;BME280;38839;45.186;5.720;2023-03-20T03:05:07;99522.22;;;8.62;87.42
52975;BME280;38839;45.186;5.720;2023-03-20T03:07:35;99515.19;;;8.53;87.90
52975;BME280;38839;45.186;5.720;2023-03-20T03:10:10;99516.06;;;8.54;88.32
52975;BME280;38839;45.186;5.720;2023-03-20T03:12:41;99514.22;;;8.43;88.77
52975;BME280;38839;45.186;5.720;2023-03-20T03:15:29;99516.88;;;8.50;88.58
52975;BME280;38839;45.186;5.720;2023-03-20T03:17:57;99522.03;;;8.46;88.04
52975;BME280;38839;45.186;5.720;2023-03-20T03:20:27;99512.47;;;8.41;87.90
52975;BME280;38839;45.186;5.720;2023-03-20T03:22:54;99519.31;;;8.37;88.11
52975;BME280;38839;45.186;5.720;2023-03-20T03:25:22;99517.53;;;8.33;88.38
52975;BME280;38839;45.186;5.720;2023-03-20T03:27:57;99513.19;;;8.32;88.92
52975;BME280;38839;45.186;5.720;2023-03-20T03:30:26;99512.28;;;8.30;89.19
52975;BME280;38839;45.186;5.720;2023-03-20T03:35:34;99510.75;;;8.44;88.85
52975;BME280;38839;45.186;5.720;2023-03-20T03:38:43;99503.88;;;8.48;88.60
52975;BME280;38839;45.186;5.720;2023-03-20T03:43:33;99512.41;;;8.39;88.53
52975;BME280;38839;45.186;5.720;2023-03-20T03:46:09;99512.34;;;8.36;88.07
52975;BME280;38839;45.186;5.720;2023-03-20T03:48:44;99510.63;;;8.35;88.03
52975;BME280;38839;45.186;5.720;2023-03-20T03:51:16;99524.50;;;8.37;88.07
52975;BME280;38839;45.186;5.720;2023-03-20T03:53:47;99514.97;;;8.35;87.84
52975;BME280;38839;45.186;5.720;2023-03-20T03:56:15;99512.34;;;8.33;87.85
52975;BME280;38839;45.186;5.720;2023-03-20T03:58:53;99521.84;;;8.31;88.23
52975;BME280;38839;45.186;5.720;2023-03-20T04:01:22;99515.69;;;8.26;88.31
52975;BME280;38839;45.186;5.720;2023-03-20T04:03:56;99522.59;;;8.24;88.69
52975;BME280;38839;45.186;5.720;2023-03-20T04:06:24;99521.75;;;8.23;88.84
52975;BME280;38839;45.186;5.720;2023-03-20T04:08:51;99526.03;;;8.20;88.85
52975;BME280;38839;45.186;5.720;2023-03-20T04:11:21;99524.25;;;8.17;89.59
52975;BME280;38839;45.186;5.720;2023-03-20T04:13:50;99520.75;;;8.14;89.90
52975;BME280;38839;45.186;5.720;2023-03-20T04:16:17;99520.66;;;8.07;89.80
52975;BME280;38839;45.186;5.720;2023-03-20T04:18:43;99521.56;;;8.08;90.18
52975;BME280;38839;45.186;5.720;2023-03-20T04:21:10;99521.56;;;8.08;90.35
52975;BME280;38839;45.186;5.720;2023-03-20T04:23:35;99524.13;;;8.06;90.23
52975;BME280;38839;45.186;5.720;2023-03-20T04:26:02;99523.22;;;8.03;90.26
52975;BME280;38839;45.186;5.720;2023-03-20T04:28:27;99531.81;;;7.99;90.23
52975;BME280;38839;45.186;5.720;2023-03-20T04:30:55;99550.94;;;8.02;90.55
52975;BME280;38839;45.186;5.720;2023-03-20T04:33:21;99548.34;;;8.02;90.33
52975;BME280;38839;45.186;5.720;2023-03-20T04:35:47;99557.03;;;8.04;90.27
52975;BME280;38839;45.186;5.720;2023-03-20T04:38:13;99551.84;;;8.04;89.77
52975;BME280;38839;45.186;5.720;2023-03-20T04:40:38;99543.97;;;8.00;89.59
52975;BME280;38839;45.186;5.720;2023-03-20T04:43:04;99541.38;;;8.01;89.24
52975;BME280;38839;45.186;5.720;2023-03-20T04:45:29;99532.66;;;7.96;89.24
52975;BME280;38839;45.186;5.720;2023-03-20T04:47:55;99537.06;;;8.00;89.02
52975;BME280;38839;45.186;5.720;2023-03-20T04:50:20;99539.75;;;8.10;88.52
52975;BME280;38839;45.186;5.720;2023-03-20T04:52:46;99538.09;;;8.15;88.13
52975;BME280;38839;45.186;5.720;2023-03-20T04:55:11;99529.47;;;8.17;87.70
52975;BME280;38839;45.186;5.720;2023-03-20T04:57:36;99528.66;;;8.21;87.37
52975;BME280;38839;45.186;5.720;2023-03-20T05:00:03;99530.41;;;8.22;87.24
52975;BME280;38839;45.186;5.720;2023-03-20T05:02:28;99532.13;;;8.20;87.19
52975;BME280;38839;45.186;5.720;2023-03-20T05:04:54;99535.53;;;8.16;87.49
52975;BME280;38839;45.186;5.720;2023-03-20T05:07:20;99520.81;;;8.17;87.52
52975;BME280;38839;45.186;5.720;2023-03-20T05:09:45;99520.72;;;8.11;87.65
52975;BME280;38839;45.186;5.720;2023-03-20T05:12:11;99519.88;;;8.10;87.80
52975;BME280;38839;45.186;5.720;2023-03-20T05:14:37;99538.19;;;8.21;88.17
52975;BME280;38839;45.186;5.720;2023-03-20T05:17:02;99527.78;;;8.21;88.14
52975;BME280;38839;45.186;5.720;2023-03-20T05:19:28;99531.28;;;8.23;88.27
52975;BME280;38839;45.186;5.720;2023-03-20T05:21:53;99525.28;;;8.30;87.92
52975;BME280;38839;45.186;5.720;2023-03-20T05:24:18;99526.16;;;8.29;88.17
52975;BME280;38839;45.186;5.720;2023-03-20T05:26:45;99526.19;;;8.31;88.06
52975;BME280;38839;45.186;5.720;2023-03-20T05:29:10;99529.66;;;8.31;87.95
52975;BME280;38839;45.186;5.720;2023-03-20T05:31:36;99533.09;;;8.30;87.80
52975;BME280;38839;45.186;5.720;2023-03-20T05:34:01;99533.97;;;8.32;87.07
52975;BME280;38839;45.186;5.720;2023-03-20T05:36:26;99532.28;;;8.36;86.68
52975;BME280;38839;45.186;5.720;2023-03-20T05:38:52;99537.44;;;8.31;86.89
52975;BME280;38839;45.186;5.720;2023-03-20T05:41:17;99544.41;;;8.34;86.45
52975;BME280;38839;45.186;5.720;2023-03-20T05:43:43;99543.47;;;8.30;86.02
52975;BME280;38839;45.186;5.720;2023-03-20T05:46:08;99545.09;;;8.22;85.96
52975;BME280;38839;45.186;5.720;2023-03-20T05:48:33;99541.47;;;8.07;85.86
52975;BME280;38839;45.186;5.720;2023-03-20T05:50:59;99542.31;;;8.05;86.17
52975;BME280;38839;45.186;5.720;2023-03-20T05:53:24;99542.28;;;8.03;85.84
52975;BME280;38839;45.186;5.720;2023-03-20T05:55:50;99541.34;;;7.98;85.91
52975;BME280;38839;45.186;5.720;2023-03-20T05:58:15;99539.56;;;7.94;86.23
52975;BME280;38839;45.186;5.720;2023-03-20T06:00:40;99542.13;;;7.93;86.19
52975;BME280;38839;45.186;5.720;2023-03-20T06:03:06;99543.88;;;7.92;86.50
52975;BME280;38839;45.186;5.720;2023-03-20T06:05:33;99550.78;;;7.93;86.68
52975;BME280;38839;45.186;5.720;2023-03-20T06:07:58;99547.38;;;7.96;86.45
52975;BME280;38839;45.186;5.720;2023-03-20T06:10:24;99556.03;;;7.96;86.18
52975;BME280;38839;45.186;5.720;2023-03-20T06:12:49;99551.75;;;7.98;85.80
52975;BME280;38839;45.186;5.720;2023-03-20T06:15:14;99552.69;;;8.05;85.80
52975;BME280;38839;45.186;5.720;2023-03-20T06:17:40;99557.09;;;8.11;85.14
52975;BME280;38839;45.186;5.720;2023-03-20T06:20:06;99556.69;;;8.44;84.17
52975;BME280;38839;45.186;5.720;2023-03-20T06:22:32;99562.88;;;8.54;83.72
52975;BME280;38839;45.186;5.720;2023-03-20T06:24:57;99567.34;;;8.65;83.10
52975;BME280;38839;45.186;5.720;2023-03-20T06:27:23;99567.22;;;8.53;82.92
52975;BME280;38839;45.186;5.720;2023-03-20T06:29:49;99572.31;;;8.45;83.01
52975;BME280;38839;45.186;5.720;2023-03-20T06:32:16;99571.50;;;8.50;82.61
52975;BME280;38839;45.186;5.720;2023-03-20T06:34:41;99574.25;;;8.65;82.31
52975;BME280;38839;45.186;5.720;2023-03-20T06:37:07;99572.66;;;8.76;81.54
52975;BME280;38839;45.186;5.720;2023-03-20T06:39:32;99565.78;;;8.80;81.44
52975;BME280;38839;45.186;5.720;2023-03-20T06:41:58;99568.41;;;8.84;81.36
52975;BME280;38839;45.186;5.720;2023-03-20T06:44:23;99569.31;;;8.90;81.32
52975;BME280;38839;45.186;5.720;2023-03-20T06:46:48;99571.09;;;8.91;81.34
52975;BME280;38839;45.186;5.720;2023-03-20T06:49:14;99564.06;;;8.85;81.22
52975;BME280;38839;45.186;5.720;2023-03-20T06:51:41;99563.22;;;8.88;81.17
52975;BME280;38839;45.186;5.720;2023-03-20T06:54:06;99571.19;;;9.03;80.80
52975;BME280;38839;45.186;5.720;2023-03-20T06:56:31;99566.97;;;9.14;80.26
52975;BME280;38839;45.186;5.720;2023-03-20T06:58:57;99568.00;;;9.32;79.74
52975;BME280;38839;45.186;5.720;2023-03-20T07:01:22;99570.59;;;9.35;79.64
52975;BME280;38839;45.186;5.720;2023-03-20T07:03:48;99567.22;;;9.43;79.19
52975;BME280;38839;45.186;5.720;2023-03-20T07:06:15;99568.97;;;9.46;79.09
52975;BME280;38839;45.186;5.720;2023-03-20T07:08:42;99569.84;;;9.46;79.02
52975;BME280;38839;45.186;5.720;2023-03-20T07:11:08;99582.91;;;9.51;78.78
52975;BME280;38839;45.186;5.720;2023-03-20T07:13:34;99581.19;;;9.53;78.84
52975;BME280;38839;45.186;5.720;2023-03-20T07:16:00;99582.94;;;9.57;78.49
52975;BME280;38839;45.186;5.720;2023-03-20T07:18:26;99594.31;;;9.64;78.20
52975;BME280;38839;45.186;5.720;2023-03-20T07:20:51;99590.03;;;9.72;77.65
52975;BME280;38839;45.186;5.720;2023-03-20T07:23:17;99593.56;;;9.80;77.31
52975;BME280;38839;45.186;5.720;2023-03-20T07:25:43;99588.41;;;9.94;77.10
52975;BME280;38839;45.186;5.720;2023-03-20T07:28:10;99592.00;;;10.15;76.43
52975;BME280;38839;45.186;5.720;2023-03-20T07:30:35;99593.91;;;10.34;75.80
52975;BME280;38839;45.186;5.720;2023-03-20T07:33:01;99590.47;;;10.44;75.25
52975;BME280;38839;45.186;5.720;2023-03-20T07:35:26;99594.78;;;10.36;74.69
52975;BME280;38839;45.186;5.720;2023-03-20T07:37:52;99599.19;;;10.56;74.75
52975;BME280;38839;45.186;5.720;2023-03-20T07:40:17;99600.00;;;10.41;74.79
52975;BME280;38839;45.186;5.720;2023-03-20T07:42:44;99607.78;;;10.33;75.15
52975;BME280;38839;45.186;5.720;2023-03-20T07:45:09;99605.97;;;10.23;76.12
52975;BME280;38839;45.186;5.720;2023-03-20T07:47:35;99605.94;;;10.17;76.70
52975;BME280;38839;45.186;5.720;2023-03-20T07:50:01;99613.59;;;9.92;78.29
52975;BME280;38839;45.186;5.720;2023-03-20T07:52:26;99612.72;;;9.92;79.01
52975;BME280;38839;45.186;5.720;2023-03-20T07:54:51;99612.84;;;10.08;78.99
52975;BME280;38839;45.186;5.720;2023-03-20T07:57:17;99619.97;;;10.34;77.60
52975;BME280;38839;45.186;5.720;2023-03-20T07:59:43;99624.44;;;10.61;77.00
52975;BME280;38839;45.186;5.720;2023-03-20T08:02:13;99617.56;;;10.86;75.41
52975;BME280;38839;45.186;5.720;2023-03-20T08:04:39;99619.44;;;11.20;74.41
52975;BME280;38839;45.186;5.720;2023-03-20T08:07:05;99618.56;;;11.44;73.68
52975;BME280;38839;45.186;5.720;2023-03-20T08:09:30;99616.81;;;11.52;73.26
52975;BME280;38839;45.186;5.720;2023-03-20T08:11:56;99616.81;;;11.58;73.18
52975;BME280;38839;45.186;5.720;2023-03-20T08:14:21;99610.75;;;11.65;73.14
52975;BME280;38839;45.186;5.720;2023-03-20T08:16:47;99621.19;;;11.81;72.55
52975;BME280;38839;45.186;5.720;2023-03-20T08:19:12;99620.34;;;12.00;71.79
52975;BME280;38839;45.186;5.720;2023-03-20T08:21:38;99615.97;;;11.82;72.20
52975;BME280;38839;45.186;5.720;2023-03-20T08:24:04;99615.09;;;11.66;72.77
52975;BME280;38839;45.186;5.720;2023-03-20T08:26:30;99616.84;;;11.86;72.16
52975;BME280;38839;45.186;5.720;2023-03-20T08:28:55;99615.09;;;11.97;71.65
52975;BME280;38839;45.186;5.720;2023-03-20T08:31:21;99629.03;;;12.12;71.24
52975;BME280;38839;45.186;5.720;2023-03-20T08:33:47;99625.53;;;12.13;71.19
52975;BME280;38839;45.186;5.720;2023-03-20T08:36:14;99619.41;;;12.26;70.66
52975;BME280;38839;45.186;5.720;2023-03-20T08:38:40;99617.66;;;12.22;70.58
52975;BME280;38839;45.186;5.720;2023-03-20T08:41:05;99629.84;;;12.43;70.02
52975;BME280;38839;45.186;5.720;2023-03-20T08:43:31;99625.44;;;12.57;69.44
52975;BME280;38839;45.186;5.720;2023-03-20T08:45:56;99628.91;;;12.58;69.44
52975;BME280;38839;45.186;5.720;2023-03-20T08:48:22;99633.28;;;12.54;69.04
52975;BME280;38839;45.186;5.720;2023-03-20T08:50:47;99633.34;;;12.33;69.09
52975;BME280;38839;45.186;5.720;2023-03-20T08:53:12;99628.13;;;12.31;69.41
52975;BME280;38839;45.186;5.720;2023-03-20T08:55:38;99633.38;;;12.10;69.68
52975;BME280;38839;45.186;5.720;2023-03-20T08:58:03;99644.63;;;12.52;68.63
52975;BME280;38839;45.186;5.720;2023-03-20T09:00:29;99644.63;;;12.52;68.12
52975;BME280;38839;45.186;5.720;2023-03-20T09:02:54;99643.75;;;12.56;67.97
52975;BME280;38839;45.186;5.720;2023-03-20T09:05:20;99635.88;;;12.59;67.99
52975;BME280;38839;45.186;5.720;2023-03-20T09:07:45;99643.75;;;12.56;67.90
52975;BME280;38839;45.186;5.720;2023-03-20T09:10:11;99641.09;;;12.68;67.55
52975;BME280;38839;45.186;5.720;2023-03-20T09:12:37;99639.22;;;12.92;66.84
52975;BME280;38839;45.186;5.720;2023-03-20T09:15:04;99639.09;;;13.19;66.08
52975;BME280;38839;45.186;5.720;2023-03-20T09:17:29;99639.06;;;13.24;65.65
52975;BME280;38839;45.186;5.720;2023-03-20T09:19:56;99645.19;;;13.23;65.32
52975;BME280;38839;45.186;5.720;2023-03-20T09:22:21;99646.91;;;13.33;65.18
52975;BME280;38839;45.186;5.720;2023-03-20T09:24:47;99640.81;;;13.22;64.97
52975;BME280;38839;45.186;5.720;2023-03-20T09:27:12;99645.22;;;13.12;65.25
52975;BME280;38839;45.186;5.720;2023-03-20T09:29:39;99644.47;;;12.95;65.48
52975;BME280;38839;45.186;5.720;2023-03-20T09:32:05;99648.84;;;12.89;65.51
52975;BME280;38839;45.186;5.720;2023-03-20T09:34:30;99656.75;;;12.80;65.55
52975;BME280;38839;45.186;5.720;2023-03-20T09:36:56;99655.09;;;12.58;66.18
52975;BME280;38839;45.186;5.720;2023-03-20T09:39:21;99660.31;;;12.55;66.52
52975;BME280;38839;45.186;5.720;2023-03-20T09:41:47;99665.53;;;12.64;66.08
52975;BME280;38839;45.186;5.720;2023-03-20T09:44:47;99663.81;;;12.55;66.03
52975;BME280;38839;45.186;5.720;2023-03-20T09:47:35;99663.78;;;12.57;65.90
52975;BME280;38839;45.186;5.720;2023-03-20T09:55:36;99664.69;;;12.56;65.41
52975;BME280;38839;45.186;5.720;2023-03-20T10:00:34;99669.88;;;12.65;64.54
52975;BME280;38839;45.186;5.720;2023-03-20T10:03:08;99672.47;;;12.80;63.63
52975;BME280;38839;45.186;5.720;2023-03-20T10:05:41;99671.56;;;12.81;63.82
52975;BME280;38839;45.186;5.720;2023-03-20T10:08:12;99672.47;;;12.74;63.51
52975;BME280;38839;45.186;5.720;2023-03-20T10:19:06;99664.63;;;12.71;63.01
52975;BME280;38839;45.186;5.720;2023-03-20T10:21:46;99668.97;;;12.75;62.88
52975;BME280;38839;45.186;5.720;2023-03-20T10:24:27;99668.09;;;12.82;62.46
52975;BME280;38839;45.186;5.720;2023-03-20T10:26:54;99682.00;;;12.89;62.31
52975;BME280;38839;45.186;5.720;2023-03-20T10:32:26;99677.63;;;12.99;62.18
52975;BME280;38839;45.186;5.720;2023-03-20T10:35:07;99678.44;;;13.05;61.92
52975;BME280;38839;45.186;5.720;2023-03-20T10:40:34;99675.72;;;13.32;61.14
52975;BME280;38839;45.186;5.720;2023-03-20T10:43:09;99671.38;;;13.18;61.41
52975;BME280;38839;45.186;5.720;2023-03-20T10:45:45;99674.88;;;13.23;61.36
52975;BME280;38839;45.186;5.720;2023-03-20T10:48:36;99673.97;;;13.26;61.39
52975;BME280;38839;45.186;5.720;2023-03-20T10:51:03;99670.47;;;13.28;61.23
52975;BME280;38839;45.186;5.720;2023-03-20T10:56:59;99675.78;;;13.16;61.48
52975;BME280;38839;45.186;5.720;2023-03-20T10:59:06;99675.88;;;13.01;61.42
52975;BME280;38839;45.186;5.720;2023-03-20T11:01:32;99675.91;;;12.85;62.07
52975;BME280;38839;45.186;5.720;2023-03-20T11:03:58;99679.41;;;12.84;61.71
52975;BME280;38839;45.186;5.720;2023-03-20T11:06:39;99680.28;;;12.86;61.41
52975;BME280;38839;45.186;5.720;2023-03-20T11:09:19;99683.84;;;12.64;61.25
52975;BME280;38839;45.186;5.720;2023-03-20T11:11:50;99681.22;;;12.68;61.76
52975;BME280;38839;45.186;5.720;2023-03-20T11:14:32;99679.47;;;12.63;61.20
52975;BME280;38839;45.186;5.720;2023-03-20T11:17:00;99682.84;;;13.00;61.00
52975;BME280;38839;45.186;5.720;2023-03-20T11:19:32;99670.59;;;13.04;60.62
52975;BME280;38839;45.186;5.720;2023-03-20T11:22:00;99689.78;;;13.09;60.24
52975;BME280;38839;45.186;5.720;2023-03-20T11:27:10;99687.13;;;13.17;60.25
52975;BME280;38839;45.186;5.720;2023-03-20T11:29:37;99674.88;;;13.30;60.04
52975;BME280;38839;45.186;5.720;2023-03-20T11:32:06;99672.25;;;13.30;59.68
52975;BME280;38839;45.186;5.720;2023-03-20T11:34:35;99677.41;;;13.42;59.41
52975;BME280;38839;45.186;5.720;2023-03-20T11:37:06;99676.56;;;13.41;59.33
52975;BME280;38839;45.186;5.720;2023-03-20T11:40:37;99686.19;;;13.35;59.06
52975;BME280;38839;45.186;5.720;2023-03-20T11:42:37;99677.44;;;13.36;59.33
52975;BME280;38839;45.186;5.720;2023-03-20T11:45:12;99677.47;;;13.33;58.98
52975;BME280;38839;45.186;5.720;2023-03-20T11:47:40;99674.78;;;13.40;58.76
52975;BME280;38839;45.186;5.720;2023-03-20T11:50:24;99680.94;;;13.28;58.68
52975;BME280;38839;45.186;5.720;2023-03-20T11:52:50;99673.03;;;13.44;58.55
52975;BME280;38839;45.186;5.720;2023-03-20T11:55:27;99675.69;;;13.38;58.41
52975;BME280;38839;45.186;5.720;2023-03-20T11:57:58;99671.34;;;13.34;58.46
52975;BME280;38839;45.186;5.720;2023-03-20T12:00:27;99673.00;;;13.48;58.28
52975;BME280;38839;45.186;5.720;2023-03-20T12:02:53;99663.25;;;13.67;57.60
52975;BME280;38839;45.186;5.720;2023-03-20T12:05:30;99664.78;;;13.95;56.90
52975;BME280;38839;45.186;5.720;2023-03-20T12:07:59;99665.50;;;14.12;56.53
52975;BME280;38839;45.186;5.720;2023-03-20T12:10:30;99661.09;;;14.13;56.39
52975;BME280;38839;45.186;5.720;2023-03-20T12:13:16;99664.56;;;14.18;55.96
52975;BME280;38839;45.186;5.720;2023-03-20T12:15:53;99659.66;;;13.81;56.71
52975;BME280;38839;45.186;5.720;2023-03-20T12:18:30;99652.56;;;13.92;56.53
52975;BME280;38839;45.186;5.720;2023-03-20T12:21:11;99652.19;;;14.32;55.82
52975;BME280;38839;45.186;5.720;2023-03-20T12:24:10;99659.34;;;14.15;55.60
52975;BME280;38839;45.186;5.720;2023-03-20T12:29:19;99644.38;;;14.26;55.88
52975;BME280;38839;45.186;5.720;2023-03-20T12:34:20;99637.09;;;14.51;54.97
52975;BME280;38839;45.186;5.720;2023-03-20T12:36:49;99634.97;;;14.85;54.65
52975;BME280;38839;45.186;5.720;2023-03-20T12:39:21;99626.16;;;14.89;54.18
52975;BME280;38839;45.186;5.720;2023-03-20T12:45:03;99627.97;;;14.86;53.83
52975;BME280;38839;45.186;5.720;2023-03-20T12:55:37;99604.66;;;15.23;53.26
52975;BME280;38839;45.186;5.720;2023-03-20T13:01:19;99591.56;;;14.57;54.52
52975;BME280;38839;45.186;5.720;2023-03-20T13:06:46;99585.81;;;14.21;55.05
52975;BME280;38839;45.186;5.720;2023-03-20T13:23:08;99559.50;;;14.27;51.79
52975;BME280;38839;45.186;5.720;2023-03-20T13:26:01;99552.16;;;14.55;52.14
52975;BME280;38839;45.186;5.720;2023-03-20T13:31:23;99541.81;;;14.44;49.75
52975;BME280;38839;45.186;5.720;2023-03-20T13:39:29;99520.56;;;14.64;50.58
52975;BME280;38839;45.186;5.720;2023-03-20T13:41:58;99519.66;;;14.68;50.49
52975;BME280;38839;45.186;5.720;2023-03-20T13:44:26;99505.59;;;14.69;50.29
52975;BME280;38839;45.186;5.720;2023-03-20T13:46:58;99508.31;;;14.65;50.39
52975;BME280;38839;45.186;5.720;2023-03-20T13:49:35;99499.66;;;14.58;50.61
52975;BME280;38839;45.186;5.720;2023-03-20T13:54:55;99494.47;;;14.51;50.54
52975;BME280;38839;45.186;5.720;2023-03-20T13:57:52;99485.66;;;14.55;51.02
52975;BME280;38839;45.186;5.720;2023-03-20T14:03:19;99478.81;;;14.41;51.20
52975;BME280;38839;45.186;5.720;2023-03-20T14:05:48;99470.31;;;14.24;51.61
52975;BME280;38839;45.186;5.720;2023-03-20T14:11:14;99473.88;;;14.20;52.00
52975;BME280;38839;45.186;5.720;2023-03-20T14:14:25;99476.81;;;13.94;52.13
52975;BME280;38839;45.186;5.720;2023-03-20T14:19:39;99471.09;;;14.32;51.65
52975;BME280;38839;45.186;5.720;2023-03-20T14:22:05;99470.00;;;14.47;51.36
52975;BME280;38839;45.186;5.720;2023-03-20T14:24:34;99472.69;;;14.44;51.20
52975;BME280;38839;45.186;5.720;2023-03-20T14:27:01;99469.16;;;14.45;51.23
52975;BME280;38839;45.186;5.720;2023-03-20T14:29:35;99464.84;;;14.42;51.06
52975;BME280;38839;45.186;5.720;2023-03-20T14:40:13;99455.16;;;14.46;50.74
52975;BME280;38839;45.186;5.720;2023-03-20T14:43:03;99446.25;;;14.59;50.76
52975;BME280;38839;45.186;5.720;2023-03-20T14:48:10;99446.34;;;14.50;50.25
52975;BME280;38839;45.186;5.720;2023-03-20T14:50:53;99450.56;;;14.62;50.52
52975;BME280;38839;45.186;5.720;2023-03-20T14:53:25;99448.69;;;14.70;50.07
52975;BME280;38839;45.186;5.720;2023-03-20T14:58:48;99445.41;;;14.56;50.28
52975;BME280;38839;45.186;5.720;2023-03-20T15:03:52;99432.28;;;14.56;51.10
52975;BME280;38839;45.186;5.720;2023-03-20T15:06:20;99433.34;;;14.39;51.26
52975;BME280;38839;45.186;5.720;2023-03-20T15:08:50;99441.38;;;14.30;51.54
52975;BME280;38839;45.186;5.720;2023-03-20T15:11:17;99428.28;;;14.27;51.44
52975;BME280;38839;45.186;5.720;2023-03-20T15:13:44;99431.56;;;14.44;51.30
52975;BME280;38839;45.186;5.720;2023-03-20T15:16:13;99425.28;;;14.53;51.07
52975;BME280;38839;45.186;5.720;2023-03-20T15:18:49;99424.38;;;14.57;50.59
52975;BME280;38839;45.186;5.720;2023-03-20T15:21:18;99425.41;;;14.45;50.91
52975;BME280;38839;45.186;5.720;2023-03-20T15:23:45;99414.22;;;14.31;50.95
52975;BME280;38839;45.186;5.720;2023-03-20T15:26:13;99423.84;;;14.32;51.24
52975;BME280;38839;45.186;5.720;2023-03-20T15:28:40;99424.03;;;14.20;51.45
52975;BME280;38839;45.186;5.720;2023-03-20T15:31:20;99422.31;;;14.17;51.18
52975;BME280;38839;45.186;5.720;2023-03-20T15:33:46;99417.19;;;14.06;51.79
52975;BME280;38839;45.186;5.720;2023-03-20T15:36:17;99425.09;;;14.03;51.80
52975;BME280;38839;45.186;5.720;2023-03-20T15:38:44;99416.31;;;14.09;51.90
52975;BME280;38839;45.186;5.720;2023-03-20T15:41:28;99404.03;;;14.09;51.62
52975;BME280;38839;45.186;5.720;2023-03-20T15:46:35;99404.03;;;14.09;51.68
52975;BME280;38839;45.186;5.720;2023-03-20T15:49:00;99403.09;;;14.15;51.83
52975;BME280;38839;45.186;5.720;2023-03-20T15:51:26;99402.28;;;14.08;51.98